createdAt,value
2019-01-18T00:00:01.736Z,4.57
2019-01-18T00:01:11.564Z,3.73
2019-01-18T00:02:20.960Z,4.33
2019-01-18T00:03:28.906Z,3.93
2019-01-18T00:04:36.486Z,4.10
2019-01-18T00:05:44.055Z,4.90
2019-01-18T00:06:51.562Z,4.73
2019-01-18T00:07:58.850Z,4.63
2019-01-18T00:09:07.748Z,4.27
2019-01-18T00:10:15.107Z,3.90
2019-01-18T00:11:22.925Z,4.07
2019-01-18T00:12:30.585Z,4.23
2019-01-18T00:13:37.961Z,3.63
2019-01-18T00:14:45.677Z,3.57
2019-01-18T00:15:53.544Z,4.50
2019-01-18T00:17:01.743Z,3.97
2019-01-18T00:18:09.546Z,2.77
2019-01-18T00:19:17.120Z,3.47
2019-01-18T00:20:25.114Z,2.80
2019-01-18T00:21:33.108Z,3.43
2019-01-18T00:22:40.949Z,3.47
2019-01-18T00:23:48.639Z,3.47
2019-01-18T00:24:56.258Z,2.83
2019-01-18T00:26:03.759Z,3.00
2019-01-18T00:27:11.396Z,3.93
2019-01-18T00:28:19.167Z,2.70
2019-01-18T00:29:29.757Z,3.63
2019-01-18T00:30:36.091Z,2.93
2019-01-18T00:31:45.465Z,2.90
2019-01-18T00:32:53.578Z,3.70
2019-01-18T00:34:00.970Z,3.17
2019-01-18T00:35:08.770Z,3.00
2019-01-18T00:36:16.445Z,3.17
2019-01-18T00:37:24.045Z,2.90
2019-01-18T00:38:31.738Z,2.57
2019-01-18T00:39:39.254Z,3.27
2019-01-18T00:40:46.806Z,3.20
2019-01-18T00:41:54.752Z,3.13
2019-01-18T00:43:02.436Z,2.73
2019-01-18T00:44:11.479Z,2.30
2019-01-18T00:45:21.076Z,3.27
2019-01-18T00:46:28.981Z,2.77
2019-01-18T00:47:36.810Z,3.00
2019-01-18T00:48:44.589Z,3.03
2019-01-18T00:49:52.315Z,3.03
2019-01-18T00:51:00.061Z,2.70
2019-01-18T00:52:07.734Z,2.60
2019-01-18T00:53:15.101Z,3.03
2019-01-18T00:54:22.811Z,2.90
2019-01-18T00:55:30.367Z,2.80
2019-01-18T00:56:38.157Z,3.40
2019-01-18T00:57:45.857Z,2.60
2019-01-18T00:58:53.772Z,3.00
2019-01-18T01:00:01.566Z,3.17
2019-01-18T01:01:09.247Z,3.90
2019-01-18T01:02:16.626Z,2.40
2019-01-18T01:03:24.229Z,3.23
2019-01-18T01:04:32.140Z,2.70
2019-01-18T01:05:39.755Z,3.27
2019-01-18T01:06:47.492Z,2.97
2019-01-18T01:07:55.183Z,2.83
2019-01-18T01:09:02.595Z,3.20
2019-01-18T01:10:12.380Z,3.90
2019-01-18T01:11:20.050Z,3.27
2019-01-18T01:12:27.980Z,2.80
2019-01-18T01:13:35.702Z,3.90
2019-01-18T01:14:43.426Z,3.83
2019-01-18T01:15:50.966Z,3.57
2019-01-18T01:16:58.741Z,3.70
2019-01-18T01:18:06.447Z,3.47
2019-01-18T01:19:14.471Z,3.93
2019-01-18T01:20:23.067Z,3.33
2019-01-18T01:21:30.635Z,3.30
2019-01-18T01:22:38.175Z,3.17
2019-01-18T01:23:46.083Z,3.03
2019-01-18T01:24:53.766Z,2.93
2019-01-18T01:26:01.446Z,3.00
2019-01-18T01:27:08.798Z,3.17
2019-01-18T01:28:16.439Z,2.90
2019-01-18T01:29:24.240Z,2.90
2019-01-18T01:30:31.967Z,3.57
2019-01-18T01:31:39.848Z,3.43
2019-01-18T01:32:47.466Z,2.93
2019-01-18T01:33:54.915Z,2.93
2019-01-18T01:35:02.380Z,4.17
2019-01-18T01:36:09.937Z,3.20
2019-01-18T01:37:17.538Z,3.40
2019-01-18T01:38:25.152Z,2.50
2019-01-18T01:39:32.748Z,3.30
2019-01-18T01:40:40.639Z,3.23
2019-01-18T01:41:48.707Z,3.30
2019-01-18T01:42:56.152Z,3.03
2019-01-18T01:44:03.783Z,2.87
2019-01-18T01:45:13.725Z,3.43
2019-01-18T01:46:21.704Z,3.47
2019-01-18T01:47:29.454Z,3.10
2019-01-18T01:48:36.898Z,3.27
2019-01-18T01:49:44.655Z,3.70
2019-01-18T01:50:52.610Z,3.73
2019-01-18T01:51:59.966Z,3.27
2019-01-18T01:53:07.521Z,3.60
2019-01-18T01:54:15.163Z,3.00
2019-01-18T01:55:22.931Z,2.90
2019-01-18T01:56:30.822Z,2.57
2019-01-18T01:57:38.432Z,2.03
2019-01-18T01:58:46.085Z,1.60
2019-01-18T01:59:53.657Z,1.47
2019-01-18T02:01:01.255Z,1.87
2019-01-18T02:02:08.871Z,1.80
2019-01-18T02:03:16.592Z,1.57
2019-01-18T02:04:24.002Z,1.47
2019-01-18T02:05:31.623Z,1.43
2019-01-18T02:06:39.341Z,1.10
2019-01-18T02:07:47.204Z,1.20
2019-01-18T02:08:54.926Z,1.23
2019-01-18T02:10:02.561Z,1.50
2019-01-18T02:11:10.062Z,1.27
2019-01-18T02:12:17.470Z,1.30
2019-01-18T02:13:25.533Z,1.17
2019-01-18T02:14:33.411Z,1.20
2019-01-18T02:15:41.013Z,1.23
2019-01-18T02:16:48.495Z,1.17
2019-01-18T02:17:56.021Z,1.33
2019-01-18T02:19:03.776Z,1.20
2019-01-18T02:20:15.260Z,1.47
2019-01-18T02:21:22.778Z,1.50
2019-01-18T02:22:30.496Z,1.30
2019-01-18T02:23:38.152Z,1.37
2019-01-18T02:24:45.632Z,1.27
2019-01-18T02:25:53.272Z,1.60
2019-01-18T02:27:01.043Z,1.40
2019-01-18T02:28:08.571Z,1.10
2019-01-18T02:29:16.445Z,1.40
2019-01-18T02:30:28.998Z,1.30
2019-01-18T02:31:36.651Z,1.00
2019-01-18T02:32:44.495Z,1.67
2019-01-18T02:33:51.966Z,1.20
2019-01-18T02:34:59.215Z,1.20
2019-01-18T02:36:06.906Z,1.20
2019-01-18T02:37:14.479Z,1.30
2019-01-18T02:38:22.289Z,1.30
2019-01-18T02:39:29.922Z,1.27
2019-01-18T02:40:37.748Z,1.60
2019-01-18T02:41:45.796Z,1.27
2019-01-18T02:42:53.430Z,1.50
2019-01-18T02:44:01.112Z,1.20
2019-01-18T02:45:16.477Z,1.77
2019-01-18T02:46:24.228Z,1.37
2019-01-18T02:47:31.649Z,1.20
2019-01-18T02:48:39.379Z,1.50
2019-01-18T02:49:46.831Z,1.73
2019-01-18T02:50:54.453Z,1.60
2019-01-18T02:52:01.789Z,1.80
2019-01-18T02:53:09.369Z,1.63
2019-01-18T02:54:17.016Z,1.80
2019-01-18T02:55:28.825Z,1.53
2019-01-18T02:56:33.628Z,2.47
2019-01-18T02:57:41.504Z,1.73
2019-01-18T02:58:49.078Z,1.80
2019-01-18T03:00:04.382Z,1.67
2019-01-18T03:01:06.082Z,1.97
2019-01-18T03:02:13.782Z,1.83
2019-01-18T03:03:21.171Z,1.60
2019-01-18T03:04:28.861Z,1.67
2019-01-18T03:05:36.673Z,1.83
2019-01-18T03:06:45.879Z,1.53
2019-01-18T03:07:54.157Z,1.47
2019-01-18T03:09:02.293Z,1.73
2019-01-18T03:10:31.300Z,2.00
2019-01-18T03:11:39.355Z,1.70
2019-01-18T03:12:47.200Z,1.53
2019-01-18T03:13:55.136Z,1.90
2019-01-18T03:15:03.060Z,1.73
2019-01-18T03:16:10.952Z,2.30
2019-01-18T03:17:18.690Z,1.93
2019-01-18T03:18:26.853Z,1.83
2019-01-18T03:19:36.788Z,2.20
2019-01-18T03:20:45.176Z,2.17
2019-01-18T03:21:53.003Z,2.13
2019-01-18T03:23:00.919Z,2.20
2019-01-18T03:24:08.727Z,2.23
2019-01-18T03:25:21.247Z,2.10
2019-01-18T03:26:28.771Z,2.40
2019-01-18T03:27:36.846Z,2.00
2019-01-18T03:28:44.799Z,2.60
2019-01-18T03:29:52.580Z,2.10
2019-01-18T03:31:01.763Z,2.67
2019-01-18T03:32:09.454Z,1.97
2019-01-18T03:33:17.937Z,2.50
2019-01-18T03:34:26.497Z,2.80
2019-01-18T03:35:34.380Z,2.90
2019-01-18T03:36:42.284Z,2.10
2019-01-18T03:37:51.125Z,2.30
2019-01-18T03:38:59.063Z,2.13
2019-01-18T03:40:11.012Z,2.80
2019-01-18T03:41:18.637Z,2.60
2019-01-18T03:42:26.702Z,2.80
2019-01-18T03:43:34.832Z,2.40
2019-01-18T03:44:42.793Z,2.43
2019-01-18T03:45:50.731Z,2.30
2019-01-18T03:46:58.642Z,2.13
2019-01-18T03:48:06.380Z,2.80
2019-01-18T03:49:14.061Z,2.33
2019-01-18T03:50:24.656Z,3.03
2019-01-18T03:51:32.565Z,2.77
2019-01-18T03:52:40.456Z,2.53
2019-01-18T03:53:48.119Z,2.43
2019-01-18T03:54:56.164Z,2.90
2019-01-18T03:56:04.401Z,2.50
2019-01-18T03:57:12.588Z,3.03
2019-01-18T03:58:20.561Z,3.23
2019-01-18T03:59:28.644Z,2.90
2019-01-18T04:00:36.261Z,3.50
2019-01-18T04:01:44.239Z,3.60
2019-01-18T04:02:52.225Z,2.90
2019-01-18T04:04:00.271Z,3.23
2019-01-18T04:05:11.028Z,4.23
2019-01-18T04:06:19.092Z,3.77
2019-01-18T04:07:27.308Z,3.50
2019-01-18T04:08:35.641Z,3.87
2019-01-18T04:09:43.569Z,3.90
2019-01-18T04:10:51.771Z,3.00
2019-01-18T04:11:59.715Z,3.17
2019-01-18T04:13:07.561Z,3.33
2019-01-18T04:14:15.415Z,3.70
2019-01-18T04:15:25.086Z,3.67
2019-01-18T04:16:32.983Z,3.23
2019-01-18T04:17:40.879Z,4.17
2019-01-18T04:18:48.680Z,3.47
2019-01-18T04:19:56.840Z,3.53
2019-01-18T04:21:04.974Z,4.17
2019-01-18T04:22:12.582Z,3.73
2019-01-18T04:23:20.406Z,3.33
2019-01-18T04:24:28.334Z,3.57
2019-01-18T04:25:36.403Z,3.83
2019-01-18T04:26:44.088Z,3.57
2019-01-18T04:27:51.953Z,3.67
2019-01-18T04:29:00.577Z,3.60
2019-01-18T04:30:13.193Z,3.60
2019-01-18T04:31:20.985Z,3.97
2019-01-18T04:32:28.665Z,3.33
2019-01-18T04:33:36.351Z,3.37
2019-01-18T04:34:44.051Z,3.37
2019-01-18T04:35:51.633Z,3.73
2019-01-18T04:36:59.933Z,4.03
2019-01-18T04:38:07.707Z,3.10
2019-01-18T04:39:23.281Z,4.20
2019-01-18T04:40:31.131Z,3.23
2019-01-18T04:41:38.925Z,2.57
2019-01-18T04:42:46.884Z,3.33
2019-01-18T04:43:55.095Z,4.43
2019-01-18T04:45:02.882Z,4.23
2019-01-18T04:46:11.000Z,3.63
2019-01-18T04:47:19.109Z,4.00
2019-01-18T04:48:27.063Z,3.53
2019-01-18T04:49:34.783Z,4.20
2019-01-18T04:50:42.685Z,3.40
2019-01-18T04:51:50.473Z,3.97
2019-01-18T04:52:58.039Z,3.60
2019-01-18T04:54:05.810Z,5.27
2019-01-18T04:55:13.601Z,4.60
2019-01-18T04:56:21.554Z,3.93
2019-01-18T04:57:29.261Z,2.80
2019-01-18T04:58:37.192Z,3.60
2019-01-18T04:59:44.896Z,3.10
2019-01-18T05:00:53.290Z,2.43
2019-01-18T05:02:00.986Z,3.90
2019-01-18T05:03:09.247Z,2.93
2019-01-18T05:04:16.770Z,2.90
2019-01-18T05:05:24.648Z,2.83
2019-01-18T05:06:32.313Z,3.03
2019-01-18T05:07:40.127Z,2.63
2019-01-18T05:08:47.821Z,2.73
2019-01-18T05:09:55.547Z,3.43
2019-01-18T05:11:03.407Z,3.30
2019-01-18T05:12:11.515Z,2.73
2019-01-18T05:13:19.742Z,2.30
2019-01-18T05:14:27.476Z,2.17
2019-01-18T05:15:35.676Z,2.80
2019-01-18T05:16:43.370Z,2.37
2019-01-18T05:17:51.278Z,2.40
2019-01-18T05:18:59.212Z,2.13
2019-01-18T05:20:09.709Z,2.27
2019-01-18T05:21:17.602Z,1.83
2019-01-18T05:22:25.576Z,2.43
2019-01-18T05:23:33.786Z,1.83
2019-01-18T05:24:41.374Z,2.47
2019-01-18T05:25:49.370Z,1.90
2019-01-18T05:26:57.484Z,2.57
2019-01-18T05:28:05.668Z,2.80
2019-01-18T05:29:13.496Z,2.90
2019-01-18T05:30:27.695Z,3.03
2019-01-18T05:31:35.479Z,3.13
2019-01-18T05:32:43.280Z,3.33
2019-01-18T05:33:51.345Z,2.90
2019-01-18T05:34:59.301Z,3.20
2019-01-18T05:36:07.154Z,3.13
2019-01-18T05:37:15.140Z,4.17
2019-01-18T05:38:22.935Z,2.50
2019-01-18T05:39:30.763Z,3.27
2019-01-18T05:40:39.738Z,2.50
2019-01-18T05:41:47.371Z,2.77
2019-01-18T05:42:55.001Z,3.47
2019-01-18T05:44:02.836Z,3.50
2019-01-18T05:45:14.298Z,3.87
2019-01-18T05:46:22.388Z,3.80
2019-01-18T05:47:30.162Z,3.73
2019-01-18T05:48:38.124Z,3.10
2019-01-18T05:49:45.760Z,3.37
2019-01-18T05:50:53.577Z,3.43
2019-01-18T05:52:01.604Z,3.60
2019-01-18T05:53:09.828Z,4.27
2019-01-18T05:54:17.377Z,4.40
2019-01-18T05:55:25.501Z,3.57
2019-01-18T05:56:33.298Z,3.17
2019-01-18T05:57:41.311Z,4.20
2019-01-18T05:58:49.194Z,4.07
2019-01-18T05:59:57.082Z,4.10
2019-01-18T06:01:05.452Z,4.47
2019-01-18T06:02:13.378Z,3.60
2019-01-18T06:03:21.402Z,3.63
2019-01-18T06:04:28.971Z,3.73
2019-01-18T06:05:39.866Z,3.10
2019-01-18T06:06:47.584Z,3.50
2019-01-18T06:07:55.698Z,3.73
2019-01-18T06:09:04.676Z,2.87
2019-01-18T06:10:13.578Z,3.20
2019-01-18T06:11:21.112Z,3.47
2019-01-18T06:12:28.810Z,3.33
2019-01-18T06:13:36.803Z,3.60
2019-01-18T06:14:44.941Z,3.50
2019-01-18T06:15:52.892Z,6.37
2019-01-18T06:17:00.886Z,3.97
2019-01-18T06:18:09.344Z,3.97
2019-01-18T06:19:17.266Z,3.30
2019-01-18T06:20:25.072Z,2.90
2019-01-18T06:21:32.670Z,3.60
2019-01-18T06:22:40.258Z,3.50
2019-01-18T06:23:48.110Z,3.47
2019-01-18T06:24:55.797Z,3.57
2019-01-18T06:26:03.657Z,3.10
2019-01-18T06:27:11.683Z,2.80
2019-01-18T06:28:19.565Z,3.07
2019-01-18T06:29:27.617Z,2.97
2019-01-18T06:30:35.813Z,2.70
2019-01-18T06:31:43.765Z,2.30
2019-01-18T06:32:51.719Z,2.63
2019-01-18T06:33:59.536Z,2.43
2019-01-18T06:35:07.781Z,2.73
2019-01-18T06:36:16.178Z,3.30
2019-01-18T06:37:24.166Z,3.37
2019-01-18T06:38:32.417Z,3.70
2019-01-18T06:39:40.450Z,3.17
2019-01-18T06:40:49.502Z,3.80
2019-01-18T06:41:57.414Z,3.27
2019-01-18T06:43:05.451Z,2.70
2019-01-18T06:44:13.638Z,3.67
2019-01-18T06:45:28.304Z,3.70
2019-01-18T06:46:36.169Z,4.87
2019-01-18T06:47:43.944Z,4.47
2019-01-18T06:48:52.282Z,4.07
2019-01-18T06:50:00.429Z,4.60
2019-01-18T06:51:08.413Z,5.20
2019-01-18T06:52:16.142Z,3.57
2019-01-18T06:53:24.560Z,5.03
2019-01-18T06:54:32.316Z,3.63
2019-01-18T06:55:40.388Z,5.03
2019-01-18T06:56:48.401Z,4.40
2019-01-18T06:57:56.482Z,4.50
2019-01-18T06:59:04.581Z,4.10
2019-01-18T07:00:25.879Z,5.57
2019-01-18T07:01:33.525Z,4.27
2019-01-18T07:02:41.817Z,3.87
2019-01-18T07:03:49.691Z,2.50
2019-01-18T07:04:57.555Z,2.63
2019-01-18T07:06:05.539Z,2.87
2019-01-18T07:07:14.051Z,2.87
2019-01-18T07:08:22.044Z,3.53
2019-01-18T07:09:30.166Z,2.93
2019-01-18T07:10:38.260Z,2.90
2019-01-18T07:11:46.045Z,2.73
2019-01-18T07:12:54.144Z,3.07
2019-01-18T07:14:02.170Z,2.67
2019-01-18T07:15:12.775Z,3.80
2019-01-18T07:16:20.713Z,2.57
2019-01-18T07:17:28.901Z,3.17
2019-01-18T07:18:36.890Z,3.60
2019-01-18T07:19:45.190Z,4.97
2019-01-18T07:20:53.019Z,5.63
2019-01-18T07:22:00.779Z,6.23
2019-01-18T07:23:09.037Z,3.97
2019-01-18T07:24:16.975Z,3.27
2019-01-18T07:25:28.030Z,3.07
2019-01-18T07:26:36.095Z,2.50
2019-01-18T07:27:44.037Z,2.63
2019-01-18T07:28:52.113Z,1.97
2019-01-18T07:30:00.414Z,2.13
2019-01-18T07:31:08.282Z,2.40
2019-01-18T07:32:16.490Z,2.90
2019-01-18T07:33:24.438Z,2.00
2019-01-18T07:34:32.713Z,2.37
2019-01-18T07:35:40.985Z,2.33
2019-01-18T07:36:49.200Z,2.00
2019-01-18T07:37:57.703Z,2.63
2019-01-18T07:39:07.955Z,2.00
2019-01-18T07:40:15.928Z,2.23
2019-01-18T07:41:24.161Z,2.07
2019-01-18T07:42:31.787Z,2.23
2019-01-18T07:43:39.823Z,2.30
2019-01-18T07:44:47.536Z,2.10
2019-01-18T07:45:55.744Z,2.33
2019-01-18T07:47:03.998Z,2.53
2019-01-18T07:48:11.944Z,2.47
2019-01-18T07:49:20.443Z,2.03
2019-01-18T07:50:28.459Z,1.90
2019-01-18T07:51:36.912Z,2.23
2019-01-18T07:52:45.340Z,2.30
2019-01-18T07:53:53.099Z,2.10
2019-01-18T07:55:01.196Z,2.70
2019-01-18T07:56:09.287Z,2.10
2019-01-18T07:57:17.387Z,2.33
2019-01-18T07:58:26.999Z,2.53
2019-01-18T07:59:34.781Z,2.10
2019-01-18T08:00:42.712Z,2.50
2019-01-18T08:01:50.892Z,2.80
2019-01-18T08:02:58.686Z,2.13
2019-01-18T08:04:06.507Z,3.00
2019-01-18T08:05:15.698Z,2.97
2019-01-18T08:06:23.896Z,2.67
2019-01-18T08:07:32.308Z,3.17
2019-01-18T08:08:39.884Z,2.60
2019-01-18T08:09:48.191Z,2.40
2019-01-18T08:10:55.941Z,2.57
2019-01-18T08:12:03.536Z,2.60
2019-01-18T08:13:11.715Z,2.80
2019-01-18T08:14:20.271Z,3.40
2019-01-18T08:15:29.401Z,2.40
2019-01-18T08:16:37.320Z,2.37
2019-01-18T08:17:44.891Z,2.70
2019-01-18T08:18:53.102Z,2.87
2019-01-18T08:20:01.500Z,2.70
2019-01-18T08:21:09.217Z,6.90
2019-01-18T08:22:17.060Z,3.53
2019-01-18T08:23:25.120Z,3.30
2019-01-18T08:24:33.551Z,3.03
2019-01-18T08:25:41.599Z,2.93
2019-01-18T08:26:49.968Z,2.73
2019-01-18T08:27:57.861Z,3.40
2019-01-18T08:29:06.050Z,2.77
2019-01-18T08:30:26.375Z,2.90
2019-01-18T08:31:33.960Z,2.90
2019-01-18T08:32:41.878Z,4.43
2019-01-18T08:33:49.637Z,3.17
2019-01-18T08:34:57.912Z,3.03
2019-01-18T08:36:05.776Z,3.60
2019-01-18T08:37:13.874Z,4.00
2019-01-18T08:38:21.614Z,3.40
2019-01-18T08:39:29.176Z,4.17
2019-01-18T08:40:38.654Z,3.70
2019-01-18T08:41:46.600Z,4.70
2019-01-18T08:42:54.321Z,3.27
2019-01-18T08:44:02.365Z,4.00
2019-01-18T08:45:17.673Z,5.63
2019-01-18T08:46:25.669Z,5.00
2019-01-18T08:47:33.411Z,5.67
2019-01-18T08:48:41.505Z,6.07
2019-01-18T08:49:49.136Z,4.57
2019-01-18T08:50:57.403Z,4.07
2019-01-18T08:52:05.539Z,5.17
2019-01-18T08:53:13.074Z,5.57
2019-01-18T08:54:21.483Z,4.43
2019-01-18T08:55:28.966Z,4.90
2019-01-18T08:56:41.868Z,3.87
2019-01-18T08:57:50.142Z,4.17
2019-01-18T08:58:57.796Z,5.27
2019-01-18T09:00:13.016Z,4.60
2019-01-18T09:01:21.522Z,4.07
2019-01-18T09:02:29.361Z,3.43
2019-01-18T09:03:39.150Z,4.50
2019-01-18T09:04:47.359Z,5.13
2019-01-18T09:05:55.626Z,5.00
2019-01-18T09:07:03.268Z,4.93
2019-01-18T09:08:11.284Z,5.13
2019-01-18T09:09:19.321Z,4.97
2019-01-18T09:10:36.443Z,5.13
2019-01-18T09:11:44.136Z,4.53
2019-01-18T09:12:52.060Z,4.80
2019-01-18T09:13:59.991Z,4.67
2019-01-18T09:15:11.306Z,5.27
2019-01-18T09:16:20.282Z,5.60
2019-01-18T09:17:27.946Z,6.53
2019-01-18T09:18:35.979Z,5.77
2019-01-18T09:19:43.840Z,6.30
2019-01-18T09:20:51.759Z,4.87
2019-01-18T09:21:59.514Z,6.17
2019-01-18T09:23:07.266Z,6.13
2019-01-18T09:24:14.997Z,5.23
2019-01-18T09:25:22.883Z,5.90
2019-01-18T09:26:30.721Z,5.53
2019-01-18T09:27:38.305Z,6.10
2019-01-18T09:28:46.082Z,6.57
2019-01-18T09:29:53.854Z,6.50
2019-01-18T09:31:02.206Z,6.43
2019-01-18T09:32:09.875Z,6.53
2019-01-18T09:33:17.642Z,6.60
2019-01-18T09:34:25.510Z,5.47
2019-01-18T09:35:34.470Z,5.73
2019-01-18T09:36:42.443Z,6.70
2019-01-18T09:37:50.269Z,6.60
2019-01-18T09:38:58.031Z,7.33
2019-01-18T09:40:10.624Z,8.80
2019-01-18T09:41:18.561Z,8.67
2019-01-18T09:42:26.474Z,9.10
2019-01-18T09:43:34.031Z,7.23
2019-01-18T09:44:41.688Z,8.67
2019-01-18T09:45:49.986Z,9.13
2019-01-18T09:46:58.480Z,8.57
2019-01-18T09:48:06.917Z,7.53
2019-01-18T09:49:14.599Z,8.57
2019-01-18T09:50:33.862Z,9.20
2019-01-18T09:51:41.521Z,6.97
2019-01-18T09:52:49.751Z,8.47
2019-01-18T09:53:57.305Z,9.27
2019-01-18T09:55:07.155Z,8.00
2019-01-18T09:56:15.600Z,10.50
2019-01-18T09:57:23.459Z,9.10
2019-01-18T09:58:30.994Z,9.43
2019-01-18T09:59:38.750Z,10.00
2019-01-18T10:00:46.343Z,8.03
2019-01-18T10:01:54.692Z,8.70
2019-01-18T10:03:02.748Z,9.20
2019-01-18T10:04:10.614Z,8.40
2019-01-18T10:05:18.956Z,8.47
2019-01-18T10:06:26.741Z,8.33
2019-01-18T10:07:35.116Z,7.67
2019-01-18T10:08:43.222Z,9.03
2019-01-18T10:09:55.479Z,8.50
2019-01-18T10:11:03.361Z,10.27
2019-01-18T10:12:11.233Z,8.03
2019-01-18T10:13:18.889Z,8.13
2019-01-18T10:14:26.506Z,8.80
2019-01-18T10:15:38.356Z,7.53
2019-01-18T10:16:45.763Z,7.53
2019-01-18T10:18:00.534Z,7.27
2019-01-18T10:19:06.450Z,7.43
2019-01-18T10:20:17.364Z,6.70
2019-01-18T10:21:25.667Z,5.37
2019-01-18T10:22:33.223Z,6.23
2019-01-18T10:23:41.090Z,6.63
2019-01-18T10:24:48.857Z,4.57
2019-01-18T10:25:56.681Z,4.47
2019-01-18T10:27:04.847Z,4.03
2019-01-18T10:28:12.574Z,4.50
2019-01-18T10:29:20.319Z,4.77
2019-01-18T10:30:28.613Z,4.77
2019-01-18T10:31:36.415Z,4.57
2019-01-18T10:32:44.454Z,4.70
2019-01-18T10:33:52.363Z,3.43
2019-01-18T10:35:00.237Z,3.87
2019-01-18T10:36:07.986Z,3.27
2019-01-18T10:37:15.842Z,2.70
2019-01-18T10:38:24.076Z,2.93
2019-01-18T10:39:31.616Z,3.33
2019-01-18T10:40:39.697Z,3.07
2019-01-18T10:41:49.572Z,2.73
2019-01-18T10:42:57.473Z,3.77
2019-01-18T10:44:06.042Z,3.73
2019-01-18T10:45:16.626Z,3.00
2019-01-18T10:46:24.325Z,3.90
2019-01-18T10:47:32.296Z,2.97
2019-01-18T10:48:39.810Z,2.80
2019-01-18T10:49:47.731Z,2.97
2019-01-18T10:50:55.671Z,3.50
2019-01-18T10:52:03.970Z,3.07
2019-01-18T10:53:11.817Z,3.20
2019-01-18T10:54:19.672Z,3.43
2019-01-18T10:55:27.768Z,3.43
2019-01-18T10:56:36.152Z,3.70
2019-01-18T10:57:44.320Z,3.57
2019-01-18T10:58:52.621Z,3.60
2019-01-18T11:00:00.296Z,2.87
2019-01-18T11:01:08.767Z,3.50
2019-01-18T11:02:16.903Z,2.97
2019-01-18T11:03:24.671Z,3.50
2019-01-18T11:04:32.837Z,3.90
2019-01-18T11:05:40.644Z,3.97
2019-01-18T11:06:49.580Z,4.67
2019-01-18T11:07:58.539Z,4.60
2019-01-18T11:09:09.252Z,4.33
2019-01-18T11:10:17.762Z,5.20
2019-01-18T11:11:25.916Z,3.80
2019-01-18T11:12:33.958Z,3.30
2019-01-18T11:13:41.662Z,3.67
2019-01-18T11:14:49.806Z,4.33
2019-01-18T11:15:57.646Z,4.07
2019-01-18T11:17:05.729Z,5.20
2019-01-18T11:18:14.195Z,5.10
2019-01-18T11:19:23.478Z,4.00
2019-01-18T11:20:46.190Z,5.57
2019-01-18T11:21:54.483Z,4.70
2019-01-18T11:23:03.340Z,4.47
2019-01-18T11:24:12.649Z,4.40
2019-01-18T11:25:20.575Z,4.90
2019-01-18T11:26:28.439Z,4.97
2019-01-18T11:27:36.484Z,4.93
2019-01-18T11:28:44.537Z,3.87
2019-01-18T11:29:52.559Z,3.53
2019-01-18T11:31:01.531Z,4.33
2019-01-18T11:32:13.711Z,4.17
2019-01-18T11:33:19.100Z,3.57
2019-01-18T11:34:26.875Z,4.00
2019-01-18T11:35:34.409Z,4.00
2019-01-18T11:36:42.335Z,4.27
2019-01-18T11:37:50.197Z,3.47
2019-01-18T11:38:58.616Z,4.43
2019-01-18T11:40:10.942Z,3.40
2019-01-18T11:41:19.054Z,3.37
2019-01-18T11:42:27.104Z,3.27
2019-01-18T11:43:35.095Z,2.60
2019-01-18T11:44:43.174Z,3.00
2019-01-18T11:45:50.828Z,3.00
2019-01-18T11:46:58.926Z,3.00
2019-01-18T11:48:06.603Z,3.07
2019-01-18T11:49:14.868Z,3.50
2019-01-18T11:50:26.332Z,3.17
2019-01-18T11:51:34.135Z,2.93
2019-01-18T11:52:41.967Z,2.53
2019-01-18T11:53:49.801Z,2.83
2019-01-18T11:54:57.973Z,2.17
2019-01-18T11:56:05.966Z,2.43
2019-01-18T11:57:13.726Z,2.40
2019-01-18T11:58:21.259Z,2.37
2019-01-18T11:59:29.543Z,2.70
2019-01-18T12:00:45.456Z,3.30
2019-01-18T12:01:53.099Z,3.10
2019-01-18T12:03:00.778Z,2.90
2019-01-18T12:04:08.655Z,2.87
2019-01-18T12:05:17.099Z,3.43
2019-01-18T12:06:24.937Z,3.10
2019-01-18T12:07:32.908Z,3.63
2019-01-18T12:08:42.011Z,2.83
2019-01-18T12:09:49.872Z,3.90
2019-01-18T12:10:57.608Z,3.93
2019-01-18T12:12:05.371Z,3.27
2019-01-18T12:13:13.410Z,3.23
2019-01-18T12:14:21.126Z,3.70
2019-01-18T12:15:28.801Z,3.27
2019-01-18T12:16:36.400Z,3.67
2019-01-18T12:17:44.708Z,3.87
2019-01-18T12:18:52.592Z,3.70
2019-01-18T12:20:00.586Z,3.83
2019-01-18T12:21:08.638Z,4.10
2019-01-18T12:22:17.300Z,3.77
2019-01-18T12:23:25.168Z,4.03
2019-01-18T12:24:33.776Z,3.37
2019-01-18T12:25:41.582Z,3.20
2019-01-18T12:26:49.474Z,3.20
2019-01-18T12:27:57.606Z,3.50
2019-01-18T12:29:05.313Z,3.63
2019-01-18T12:30:26.234Z,3.70
2019-01-18T12:31:33.834Z,4.00
2019-01-18T12:32:41.596Z,3.87
2019-01-18T12:33:50.003Z,3.60
2019-01-18T12:34:58.593Z,3.43
2019-01-18T12:36:06.326Z,4.20
2019-01-18T12:37:14.050Z,4.30
2019-01-18T12:38:22.204Z,3.97
2019-01-18T12:39:29.793Z,3.60
2019-01-18T12:40:37.464Z,3.63
2019-01-18T12:41:45.199Z,3.67
2019-01-18T12:42:53.209Z,3.40
2019-01-18T12:44:01.375Z,4.07
2019-01-18T12:45:15.734Z,3.77
2019-01-18T12:46:24.165Z,4.00
2019-01-18T12:47:32.049Z,5.00
2019-01-18T12:48:39.845Z,4.00
2019-01-18T12:49:47.516Z,4.43
2019-01-18T12:50:55.835Z,4.10
2019-01-18T12:52:04.047Z,4.43
2019-01-18T12:53:12.170Z,3.40
2019-01-18T12:54:19.870Z,4.00
2019-01-18T12:55:27.790Z,3.20
2019-01-18T12:56:35.912Z,3.90
2019-01-18T12:57:43.932Z,3.30
2019-01-18T12:58:56.641Z,3.90
2019-01-18T13:00:05.974Z,3.63
2019-01-18T13:01:14.176Z,4.40
2019-01-18T13:02:22.267Z,2.50
2019-01-18T13:03:30.029Z,4.43
2019-01-18T13:04:37.439Z,3.27
2019-01-18T13:05:45.817Z,2.97
2019-01-18T13:06:53.552Z,3.50
2019-01-18T13:08:01.447Z,3.60
2019-01-18T13:09:09.140Z,4.33
2019-01-18T13:10:16.939Z,3.37
2019-01-18T13:11:25.144Z,4.10
2019-01-18T13:12:32.581Z,4.43
2019-01-18T13:13:40.923Z,4.70
2019-01-18T13:14:48.967Z,4.80
2019-01-18T13:16:04.033Z,4.57
2019-01-18T13:17:12.075Z,4.00
2019-01-18T13:18:19.925Z,5.13
2019-01-18T13:19:27.706Z,4.00
2019-01-18T13:20:35.341Z,3.80
2019-01-18T13:21:43.884Z,5.10
2019-01-18T13:22:51.363Z,5.03
2019-01-18T13:23:59.210Z,3.80
2019-01-18T13:25:12.214Z,3.47
2019-01-18T13:26:20.947Z,3.60
2019-01-18T13:27:28.387Z,4.63
2019-01-18T13:28:36.734Z,4.47
2019-01-18T13:29:45.066Z,4.33
2019-01-18T13:30:52.704Z,4.70
2019-01-18T13:32:00.628Z,4.17
2019-01-18T13:33:10.292Z,3.10
2019-01-18T13:34:20.253Z,4.10
2019-01-18T13:35:28.111Z,3.57
2019-01-18T13:36:35.987Z,3.00
2019-01-18T13:37:45.167Z,4.00
2019-01-18T13:38:53.457Z,3.20
2019-01-18T13:40:06.166Z,3.80
2019-01-18T13:41:11.295Z,3.07
2019-01-18T13:42:19.122Z,2.90
2019-01-18T13:43:26.870Z,2.93
2019-01-18T13:44:35.246Z,2.20
2019-01-18T13:45:42.904Z,3.80
2019-01-18T13:46:51.264Z,2.90
2019-01-18T13:47:59.210Z,3.37
2019-01-18T13:49:07.466Z,2.60
2019-01-18T13:50:18.431Z,3.17
2019-01-18T13:51:26.468Z,2.90
2019-01-18T13:52:36.218Z,3.63
2019-01-18T13:53:44.256Z,3.53
2019-01-18T13:54:51.957Z,3.13
2019-01-18T13:55:59.892Z,3.63
2019-01-18T13:57:07.581Z,3.40
2019-01-18T13:58:15.297Z,4.30
2019-01-18T13:59:23.673Z,3.80
2019-01-18T14:00:31.449Z,5.27
2019-01-18T14:01:39.651Z,4.33
2019-01-18T14:02:48.562Z,4.23
2019-01-18T14:03:56.870Z,3.57
2019-01-18T14:05:06.496Z,4.73
2019-01-18T14:06:14.314Z,4.80
2019-01-18T14:07:22.950Z,4.77
2019-01-18T14:08:31.297Z,4.00
2019-01-18T14:09:40.019Z,5.47
2019-01-18T14:10:48.343Z,3.53
2019-01-18T14:11:56.914Z,5.17
2019-01-18T14:13:05.336Z,5.77
2019-01-18T14:14:13.471Z,5.13
2019-01-18T14:15:23.635Z,5.73
2019-01-18T14:16:31.423Z,3.33
2019-01-18T14:17:39.623Z,4.87
2019-01-18T14:18:48.023Z,4.50
2019-01-18T14:19:56.788Z,5.73
2019-01-18T14:21:05.282Z,4.53
2019-01-18T14:22:13.722Z,5.60
2019-01-18T14:23:21.678Z,4.83
2019-01-18T14:24:30.012Z,4.00
2019-01-18T14:25:38.065Z,4.83
2019-01-18T14:26:47.093Z,4.90
2019-01-18T14:27:55.231Z,3.80
2019-01-18T14:29:03.096Z,4.53
2019-01-18T14:30:24.071Z,6.03
2019-01-18T14:31:33.935Z,6.47
2019-01-18T14:32:42.805Z,6.13
2019-01-18T14:33:51.608Z,5.07
2019-01-18T14:35:00.390Z,5.40
2019-01-18T14:36:09.790Z,4.83
2019-01-18T14:37:18.800Z,6.50
2019-01-18T14:38:27.176Z,6.10
2019-01-18T14:39:36.028Z,5.13
2019-01-18T14:40:44.104Z,6.13
2019-01-18T14:41:52.455Z,5.20
2019-01-18T14:43:01.423Z,5.60
2019-01-18T14:44:11.122Z,4.80
2019-01-18T14:45:35.891Z,5.13
2019-01-18T14:46:45.485Z,3.63
2019-01-18T14:47:53.918Z,5.60
2019-01-18T14:49:02.066Z,5.40
2019-01-18T14:50:17.347Z,4.90
2019-01-18T14:51:25.777Z,6.07
2019-01-18T14:52:35.866Z,4.87
2019-01-18T14:53:43.918Z,4.23
2019-01-18T14:54:51.724Z,5.10
2019-01-18T14:55:59.492Z,4.63
2019-01-18T14:57:07.537Z,4.40
2019-01-18T14:58:15.303Z,4.37
2019-01-18T14:59:23.105Z,6.17
2019-01-18T15:00:35.079Z,4.20
2019-01-18T15:01:43.078Z,4.23
2019-01-18T15:02:51.029Z,4.30
2019-01-18T15:03:59.245Z,5.23
2019-01-18T15:05:11.147Z,4.13
2019-01-18T15:06:19.203Z,4.57
2019-01-18T15:07:27.851Z,4.63
2019-01-18T15:08:35.973Z,4.63
2019-01-18T15:09:43.784Z,4.50